sensor_id;sensor_type;location;lat;lon;timestamp;temperature;humidity
45837;DHT22;31548;51.420;-0.040;2023-07-08T00:01:28;22.10;99.90
45837;DHT22;31548;51.420;-0.040;2023-07-08T00:03:55;21.90;99.90
45837;DHT22;31548;51.420;-0.040;2023-07-08T00:06:26;21.90;99.90
45837;DHT22;31548;51.420;-0.040;2023-07-08T00:08:54;21.80;99.90
45837;DHT22;31548;51.420;-0.040;2023-07-08T00:11:23;21.80;99.90
45837;DHT22;31548;51.420;-0.040;2023-07-08T00:13:50;21.80;99.90
45837;DHT22;31548;51.420;-0.040;2023-07-08T00:16:18;21.80;99.90
45837;DHT22;31548;51.420;-0.040;2023-07-08T00:18:46;21.70;99.90
45837;DHT22;31548;51.420;-0.040;2023-07-08T00:21:16;21.70;99.90
45837;DHT22;31548;51.420;-0.040;2023-07-08T00:23:46;21.70;99.90
45837;DHT22;31548;51.420;-0.040;2023-07-08T00:26:25;21.70;99.90
45837;DHT22;31548;51.420;-0.040;2023-07-08T00:28:53;21.60;99.90
45837;DHT22;31548;51.420;-0.040;2023-07-08T00:31:25;21.60;99.90
45837;DHT22;31548;51.420;-0.040;2023-07-08T00:33:54;21.50;99.90
45837;DHT22;31548;51.420;-0.040;2023-07-08T00:36:25;21.50;99.90
45837;DHT22;31548;51.420;-0.040;2023-07-08T00:38:53;21.50;99.90
45837;DHT22;31548;51.420;-0.040;2023-07-08T00:41:28;21.50;99.90
45837;DHT22;31548;51.420;-0.040;2023-07-08T00:43:58;21.50;99.90
45837;DHT22;31548;51.420;-0.040;2023-07-08T00:49:36;21.40;99.90
45837;DHT22;31548;51.420;-0.040;2023-07-08T00:54:52;21.30;99.90
45837;DHT22;31548;51.420;-0.040;2023-07-08T00:57:21;21.40;99.90
45837;DHT22;31548;51.420;-0.040;2023-07-08T00:59:55;21.40;99.90
45837;DHT22;31548;51.420;-0.040;2023-07-08T01:02:25;21.40;99.90
45837;DHT22;31548;51.420;-0.040;2023-07-08T01:05:12;21.30;99.90
45837;DHT22;31548;51.420;-0.040;2023-07-08T01:07:44;21.30;99.90
45837;DHT22;31548;51.420;-0.040;2023-07-08T01:10:28;21.20;99.90
45837;DHT22;31548;51.420;-0.040;2023-07-08T01:13:02;21.20;99.90
45837;DHT22;31548;51.420;-0.040;2023-07-08T01:15:36;21.20;99.90
45837;DHT22;31548;51.420;-0.040;2023-07-08T01:18:07;21.10;99.90
45837;DHT22;31548;51.420;-0.040;2023-07-08T01:20:35;21.10;99.90
45837;DHT22;31548;51.420;-0.040;2023-07-08T01:23:03;21.10;99.90
45837;DHT22;31548;51.420;-0.040;2023-07-08T01:25:32;21.00;99.90
45837;DHT22;31548;51.420;-0.040;2023-07-08T01:28:00;20.90;99.90
45837;DHT22;31548;51.420;-0.040;2023-07-08T01:30:29;20.90;99.90
45837;DHT22;31548;51.420;-0.040;2023-07-08T01:33:00;20.80;99.90
45837;DHT22;31548;51.420;-0.040;2023-07-08T01:35:29;20.70;99.90
45837;DHT22;31548;51.420;-0.040;2023-07-08T01:38:02;20.70;99.90
45837;DHT22;31548;51.420;-0.040;2023-07-08T01:40:33;20.70;99.90
45837;DHT22;31548;51.420;-0.040;2023-07-08T01:43:02;20.70;99.90
45837;DHT22;31548;51.420;-0.040;2023-07-08T01:45:37;20.80;99.90
45837;DHT22;31548;51.420;-0.040;2023-07-08T01:48:08;20.80;99.90
45837;DHT22;31548;51.420;-0.040;2023-07-08T01:50:40;20.80;99.90
45837;DHT22;31548;51.420;-0.040;2023-07-08T01:53:16;20.70;99.90
45837;DHT22;31548;51.420;-0.040;2023-07-08T01:55:43;20.70;99.90
45837;DHT22;31548;51.420;-0.040;2023-07-08T01:58:11;20.60;99.90
45837;DHT22;31548;51.420;-0.040;2023-07-08T02:00:39;20.70;99.90
45837;DHT22;31548;51.420;-0.040;2023-07-08T02:03:06;20.60;99.90
45837;DHT22;31548;51.420;-0.040;2023-07-08T02:05:34;20.50;99.90
45837;DHT22;31548;51.420;-0.040;2023-07-08T02:08:01;20.50;99.90
45837;DHT22;31548;51.420;-0.040;2023-07-08T02:10:29;20.50;99.90
45837;DHT22;31548;51.420;-0.040;2023-07-08T02:12:56;20.60;99.90
45837;DHT22;31548;51.420;-0.040;2023-07-08T02:15:25;20.50;99.90
45837;DHT22;31548;51.420;-0.040;2023-07-08T02:17:53;20.50;99.90
45837;DHT22;31548;51.420;-0.040;2023-07-08T02:20:20;20.60;99.90
45837;DHT22;31548;51.420;-0.040;2023-07-08T02:22:48;20.50;99.90
45837;DHT22;31548;51.420;-0.040;2023-07-08T02:25:16;20.60;99.90
45837;DHT22;31548;51.420;-0.040;2023-07-08T02:27:44;20.50;99.90
45837;DHT22;31548;51.420;-0.040;2023-07-08T02:30:11;20.50;99.90
45837;DHT22;31548;51.420;-0.040;2023-07-08T02:32:39;20.50;99.90
45837;DHT22;31548;51.420;-0.040;2023-07-08T02:35:08;20.40;99.90
45837;DHT22;31548;51.420;-0.040;2023-07-08T02:37:35;20.40;99.90
45837;DHT22;31548;51.420;-0.040;2023-07-08T02:40:03;20.40;99.90
45837;DHT22;31548;51.420;-0.040;2023-07-08T02:42:31;20.40;99.90
45837;DHT22;31548;51.420;-0.040;2023-07-08T02:44:58;20.30;99.90
45837;DHT22;31548;51.420;-0.040;2023-07-08T02:47:25;20.40;99.90
45837;DHT22;31548;51.420;-0.040;2023-07-08T02:49:53;20.40;99.90
45837;DHT22;31548;51.420;-0.040;2023-07-08T02:52:21;20.30;99.90
45837;DHT22;31548;51.420;-0.040;2023-07-08T02:54:48;20.40;99.90
45837;DHT22;31548;51.420;-0.040;2023-07-08T02:57:16;20.30;99.90
45837;DHT22;31548;51.420;-0.040;2023-07-08T02:59:43;20.30;99.90
45837;DHT22;31548;51.420;-0.040;2023-07-08T03:02:10;20.20;99.90
45837;DHT22;31548;51.420;-0.040;2023-07-08T03:04:38;20.10;99.90
45837;DHT22;31548;51.420;-0.040;2023-07-08T03:07:07;20.20;99.90
45837;DHT22;31548;51.420;-0.040;2023-07-08T03:09:38;20.10;99.90
45837;DHT22;31548;51.420;-0.040;2023-07-08T03:12:09;20.10;99.90
45837;DHT22;31548;51.420;-0.040;2023-07-08T03:14:37;20.20;99.90
45837;DHT22;31548;51.420;-0.040;2023-07-08T03:17:05;20.20;99.90
45837;DHT22;31548;51.420;-0.040;2023-07-08T03:19:32;20.20;99.90
45837;DHT22;31548;51.420;-0.040;2023-07-08T03:22:00;20.10;99.90
45837;DHT22;31548;51.420;-0.040;2023-07-08T03:24:30;20.10;99.90
45837;DHT22;31548;51.420;-0.040;2023-07-08T03:27:01;20.10;99.90
45837;DHT22;31548;51.420;-0.040;2023-07-08T03:29:34;20.00;99.90
45837;DHT22;31548;51.420;-0.040;2023-07-08T03:32:03;20.00;99.90
45837;DHT22;31548;51.420;-0.040;2023-07-08T03:34:31;19.90;99.90
45837;DHT22;31548;51.420;-0.040;2023-07-08T03:36:58;19.80;99.90
45837;DHT22;31548;51.420;-0.040;2023-07-08T03:39:26;19.90;99.90
45837;DHT22;31548;51.420;-0.040;2023-07-08T03:41:54;19.90;99.90
45837;DHT22;31548;51.420;-0.040;2023-07-08T03:44:21;19.90;99.90
45837;DHT22;31548;51.420;-0.040;2023-07-08T03:46:49;19.90;99.90
45837;DHT22;31548;51.420;-0.040;2023-07-08T03:49:20;20.00;99.90
45837;DHT22;31548;51.420;-0.040;2023-07-08T03:51:52;19.90;99.90
45837;DHT22;31548;51.420;-0.040;2023-07-08T03:54:23;19.90;99.90
45837;DHT22;31548;51.420;-0.040;2023-07-08T03:56:53;19.90;99.90
45837;DHT22;31548;51.420;-0.040;2023-07-08T03:59:23;19.90;99.90
45837;DHT22;31548;51.420;-0.040;2023-07-08T04:01:53;20.00;99.90
45837;DHT22;31548;51.420;-0.040;2023-07-08T04:04:20;20.00;99.90
45837;DHT22;31548;51.420;-0.040;2023-07-08T04:06:49;20.00;99.90
45837;DHT22;31548;51.420;-0.040;2023-07-08T04:09:17;20.00;99.90
45837;DHT22;31548;51.420;-0.040;2023-07-08T04:11:44;20.10;99.90
45837;DHT22;31548;51.420;-0.040;2023-07-08T04:14:12;20.10;99.90
45837;DHT22;31548;51.420;-0.040;2023-07-08T04:19:18;20.10;99.90
45837;DHT22;31548;51.420;-0.040;2023-07-08T04:21:46;20.10;99.90
45837;DHT22;31548;51.420;-0.040;2023-07-08T04:24:15;20.00;99.90
45837;DHT22;31548;51.420;-0.040;2023-07-08T04:26:45;20.10;99.90
45837;DHT22;31548;51.420;-0.040;2023-07-08T04:29:18;20.10;99.90
45837;DHT22;31548;51.420;-0.040;2023-07-08T04:31:46;20.10;99.90
45837;DHT22;31548;51.420;-0.040;2023-07-08T04:34:15;20.10;99.90
45837;DHT22;31548;51.420;-0.040;2023-07-08T04:36:43;20.10;99.90
45837;DHT22;31548;51.420;-0.040;2023-07-08T04:39:11;20.10;99.90
45837;DHT22;31548;51.420;-0.040;2023-07-08T04:41:40;20.10;99.90
45837;DHT22;31548;51.420;-0.040;2023-07-08T04:44:11;20.20;99.90
45837;DHT22;31548;51.420;-0.040;2023-07-08T04:47:00;20.10;99.90
45837;DHT22;31548;51.420;-0.040;2023-07-08T04:49:27;20.20;99.90
45837;DHT22;31548;51.420;-0.040;2023-07-08T04:52:01;20.30;99.90
45837;DHT22;31548;51.420;-0.040;2023-07-08T04:54:29;20.30;99.90
45837;DHT22;31548;51.420;-0.040;2023-07-08T04:56:56;20.40;99.90
45837;DHT22;31548;51.420;-0.040;2023-07-08T04:59:26;20.40;99.90
45837;DHT22;31548;51.420;-0.040;2023-07-08T05:01:53;20.40;99.90
45837;DHT22;31548;51.420;-0.040;2023-07-08T05:04:22;20.40;99.90
45837;DHT22;31548;51.420;-0.040;2023-07-08T05:06:50;20.50;99.90
45837;DHT22;31548;51.420;-0.040;2023-07-08T05:09:17;20.50;99.90
45837;DHT22;31548;51.420;-0.040;2023-07-08T05:11:45;20.50;99.90
45837;DHT22;31548;51.420;-0.040;2023-07-08T05:14:13;20.50;99.90
45837;DHT22;31548;51.420;-0.040;2023-07-08T05:16:41;20.60;99.90
45837;DHT22;31548;51.420;-0.040;2023-07-08T05:19:08;20.60;99.90
45837;DHT22;31548;51.420;-0.040;2023-07-08T05:21:37;20.70;99.90
45837;DHT22;31548;51.420;-0.040;2023-07-08T05:24:05;20.80;99.90
45837;DHT22;31548;51.420;-0.040;2023-07-08T05:26:33;20.80;99.90
45837;DHT22;31548;51.420;-0.040;2023-07-08T05:29:00;20.90;99.90
45837;DHT22;31548;51.420;-0.040;2023-07-08T05:31:28;20.90;99.90
45837;DHT22;31548;51.420;-0.040;2023-07-08T05:33:59;21.00;99.90
45837;DHT22;31548;51.420;-0.040;2023-07-08T05:36:26;21.00;99.90
45837;DHT22;31548;51.420;-0.040;2023-07-08T05:38:54;21.00;99.90
45837;DHT22;31548;51.420;-0.040;2023-07-08T05:41:21;21.10;99.90
45837;DHT22;31548;51.420;-0.040;2023-07-08T05:43:49;21.10;99.90
45837;DHT22;31548;51.420;-0.040;2023-07-08T05:46:16;21.20;99.90
45837;DHT22;31548;51.420;-0.040;2023-07-08T05:48:43;21.30;99.90
45837;DHT22;31548;51.420;-0.040;2023-07-08T05:51:11;21.30;99.90
45837;DHT22;31548;51.420;-0.040;2023-07-08T05:53:38;21.40;99.90
45837;DHT22;31548;51.420;-0.040;2023-07-08T05:56:06;21.50;99.90
45837;DHT22;31548;51.420;-0.040;2023-07-08T05:58:33;21.50;99.90
45837;DHT22;31548;51.420;-0.040;2023-07-08T06:01:01;21.60;99.90
45837;DHT22;31548;51.420;-0.040;2023-07-08T06:03:29;21.70;99.90
45837;DHT22;31548;51.420;-0.040;2023-07-08T06:05:57;21.80;99.90
45837;DHT22;31548;51.420;-0.040;2023-07-08T06:08:25;21.90;99.90
45837;DHT22;31548;51.420;-0.040;2023-07-08T06:10:52;22.10;99.90
45837;DHT22;31548;51.420;-0.040;2023-07-08T06:13:20;22.20;99.90
45837;DHT22;31548;51.420;-0.040;2023-07-08T06:15:47;22.30;99.90
45837;DHT22;31548;51.420;-0.040;2023-07-08T06:18:15;22.50;99.90
45837;DHT22;31548;51.420;-0.040;2023-07-08T06:20:54;22.70;99.90
45837;DHT22;31548;51.420;-0.040;2023-07-08T06:23:21;22.80;99.90
45837;DHT22;31548;51.420;-0.040;2023-07-08T06:25:50;23.00;99.90
45837;DHT22;31548;51.420;-0.040;2023-07-08T06:28:19;23.10;99.90
45837;DHT22;31548;51.420;-0.040;2023-07-08T06:30:47;23.20;99.90
45837;DHT22;31548;51.420;-0.040;2023-07-08T06:33:15;23.30;99.90
45837;DHT22;31548;51.420;-0.040;2023-07-08T06:35:49;23.30;99.90
45837;DHT22;31548;51.420;-0.040;2023-07-08T06:38:16;23.40;99.90
45837;DHT22;31548;51.420;-0.040;2023-07-08T06:40:44;23.40;99.90
45837;DHT22;31548;51.420;-0.040;2023-07-08T06:43:12;23.40;99.90
45837;DHT22;31548;51.420;-0.040;2023-07-08T06:45:46;23.50;99.90
45837;DHT22;31548;51.420;-0.040;2023-07-08T06:48:24;23.60;99.90
45837;DHT22;31548;51.420;-0.040;2023-07-08T06:51:12;23.50;99.90
45837;DHT22;31548;51.420;-0.040;2023-07-08T06:53:43;23.60;99.90
45837;DHT22;31548;51.420;-0.040;2023-07-08T06:56:10;23.60;99.90
45837;DHT22;31548;51.420;-0.040;2023-07-08T06:58:38;23.70;99.90
45837;DHT22;31548;51.420;-0.040;2023-07-08T07:01:05;23.80;99.90
45837;DHT22;31548;51.420;-0.040;2023-07-08T07:03:32;23.90;99.90
45837;DHT22;31548;51.420;-0.040;2023-07-08T07:06:00;23.90;99.90
45837;DHT22;31548;51.420;-0.040;2023-07-08T07:08:27;23.90;99.90
45837;DHT22;31548;51.420;-0.040;2023-07-08T07:10:54;24.00;99.90
45837;DHT22;31548;51.420;-0.040;2023-07-08T07:13:22;24.00;99.90
45837;DHT22;31548;51.420;-0.040;2023-07-08T07:15:49;24.00;99.90
45837;DHT22;31548;51.420;-0.040;2023-07-08T07:18:18;24.10;99.90
45837;DHT22;31548;51.420;-0.040;2023-07-08T07:20:52;24.10;99.90
45837;DHT22;31548;51.420;-0.040;2023-07-08T07:23:19;24.20;99.90
45837;DHT22;31548;51.420;-0.040;2023-07-08T07:25:47;24.20;99.90
45837;DHT22;31548;51.420;-0.040;2023-07-08T07:28:15;24.20;99.90
45837;DHT22;31548;51.420;-0.040;2023-07-08T07:30:44;24.20;99.90
45837;DHT22;31548;51.420;-0.040;2023-07-08T07:33:12;24.10;99.90
45837;DHT22;31548;51.420;-0.040;2023-07-08T07:35:46;24.10;99.90
45837;DHT22;31548;51.420;-0.040;2023-07-08T07:38:14;24.20;99.90
45837;DHT22;31548;51.420;-0.040;2023-07-08T07:40:44;24.20;99.90
45837;DHT22;31548;51.420;-0.040;2023-07-08T07:43:12;24.30;99.90
45837;DHT22;31548;51.420;-0.040;2023-07-08T07:45:39;24.50;99.90
45837;DHT22;31548;51.420;-0.040;2023-07-08T07:48:06;24.50;99.90
45837;DHT22;31548;51.420;-0.040;2023-07-08T07:50:34;24.60;99.90
45837;DHT22;31548;51.420;-0.040;2023-07-08T07:53:01;24.70;99.90
45837;DHT22;31548;51.420;-0.040;2023-07-08T07:55:29;24.80;99.90
45837;DHT22;31548;51.420;-0.040;2023-07-08T07:57:56;24.80;99.90
45837;DHT22;31548;51.420;-0.040;2023-07-08T08:00:23;24.90;99.90
45837;DHT22;31548;51.420;-0.040;2023-07-08T08:02:51;24.90;99.90
45837;DHT22;31548;51.420;-0.040;2023-07-08T08:05:18;25.00;99.90
45837;DHT22;31548;51.420;-0.040;2023-07-08T08:07:47;24.90;99.90
45837;DHT22;31548;51.420;-0.040;2023-07-08T08:10:15;24.90;99.90
45837;DHT22;31548;51.420;-0.040;2023-07-08T08:12:42;24.80;99.90
45837;DHT22;31548;51.420;-0.040;2023-07-08T08:15:20;24.70;99.90
45837;DHT22;31548;51.420;-0.040;2023-07-08T08:17:48;24.70;99.90
45837;DHT22;31548;51.420;-0.040;2023-07-08T08:20:20;24.60;99.90
45837;DHT22;31548;51.420;-0.040;2023-07-08T08:22:49;24.60;99.90
45837;DHT22;31548;51.420;-0.040;2023-07-08T08:25:18;24.40;99.90
45837;DHT22;31548;51.420;-0.040;2023-07-08T08:27:46;24.40;99.90
45837;DHT22;31548;51.420;-0.040;2023-07-08T08:30:14;24.30;99.90
45837;DHT22;31548;51.420;-0.040;2023-07-08T08:32:47;24.30;99.90
45837;DHT22;31548;51.420;-0.040;2023-07-08T08:35:18;24.20;99.90
45837;DHT22;31548;51.420;-0.040;2023-07-08T08:37:47;24.20;99.90
45837;DHT22;31548;51.420;-0.040;2023-07-08T08:40:18;24.20;99.90
45837;DHT22;31548;51.420;-0.040;2023-07-08T08:42:57;24.30;99.90
45837;DHT22;31548;51.420;-0.040;2023-07-08T08:45:26;24.20;99.90
45837;DHT22;31548;51.420;-0.040;2023-07-08T08:48:00;24.20;99.90
45837;DHT22;31548;51.420;-0.040;2023-07-08T08:50:44;24.30;99.90
45837;DHT22;31548;51.420;-0.040;2023-07-08T08:53:16;24.40;99.90
45837;DHT22;31548;51.420;-0.040;2023-07-08T08:55:48;24.40;99.90
45837;DHT22;31548;51.420;-0.040;2023-07-08T08:58:36;24.50;99.90
45837;DHT22;31548;51.420;-0.040;2023-07-08T09:01:15;24.60;99.90
45837;DHT22;31548;51.420;-0.040;2023-07-08T09:03:47;24.50;99.90
45837;DHT22;31548;51.420;-0.040;2023-07-08T09:06:27;24.70;99.90
45837;DHT22;31548;51.420;-0.040;2023-07-08T09:08:57;24.70;99.90
45837;DHT22;31548;51.420;-0.040;2023-07-08T09:14:24;24.80;99.90
45837;DHT22;31548;51.420;-0.040;2023-07-08T09:19:35;25.20;99.90
45837;DHT22;31548;51.420;-0.040;2023-07-08T09:22:16;25.30;99.90
45837;DHT22;31548;51.420;-0.040;2023-07-08T09:24:54;25.40;99.90
45837;DHT22;31548;51.420;-0.040;2023-07-08T09:27:22;25.50;99.90
45837;DHT22;31548;51.420;-0.040;2023-07-08T09:29:50;25.60;99.90
45837;DHT22;31548;51.420;-0.040;2023-07-08T09:32:19;25.40;99.90
45837;DHT22;31548;51.420;-0.040;2023-07-08T09:37:23;25.70;99.90
45837;DHT22;31548;51.420;-0.040;2023-07-08T09:39:52;25.90;99.90
45837;DHT22;31548;51.420;-0.040;2023-07-08T09:42:27;25.90;99.90
45837;DHT22;31548;51.420;-0.040;2023-07-08T09:44:58;26.00;99.90
45837;DHT22;31548;51.420;-0.040;2023-07-08T09:47:32;26.00;99.90
45837;DHT22;31548;51.420;-0.040;2023-07-08T09:50:01;26.20;99.90
45837;DHT22;31548;51.420;-0.040;2023-07-08T09:52:31;26.20;99.90
45837;DHT22;31548;51.420;-0.040;2023-07-08T09:54:58;26.30;99.90
45837;DHT22;31548;51.420;-0.040;2023-07-08T09:57:31;26.30;99.90
45837;DHT22;31548;51.420;-0.040;2023-07-08T10:00:02;26.40;99.90
45837;DHT22;31548;51.420;-0.040;2023-07-08T10:05:22;26.40;99.90
45837;DHT22;31548;51.420;-0.040;2023-07-08T10:07:54;26.50;99.90
45837;DHT22;31548;51.420;-0.040;2023-07-08T10:10:36;26.80;99.90
45837;DHT22;31548;51.420;-0.040;2023-07-08T10:13:35;26.70;99.90
45837;DHT22;31548;51.420;-0.040;2023-07-08T10:18:41;26.70;99.90
45837;DHT22;31548;51.420;-0.040;2023-07-08T10:24:23;26.90;99.90
45837;DHT22;31548;51.420;-0.040;2023-07-08T10:26:49;26.70;99.90
45837;DHT22;31548;51.420;-0.040;2023-07-08T10:30:03;26.60;99.90
45837;DHT22;31548;51.420;-0.040;2023-07-08T10:32:45;26.70;99.90
45837;DHT22;31548;51.420;-0.040;2023-07-08T10:35:33;26.60;99.90
45837;DHT22;31548;51.420;-0.040;2023-07-08T10:40:58;26.40;99.90
45837;DHT22;31548;51.420;-0.040;2023-07-08T10:54:42;25.70;99.90
45837;DHT22;31548;51.420;-0.040;2023-07-08T11:00:35;25.60;99.90
45837;DHT22;31548;51.420;-0.040;2023-07-08T11:06:24;25.30;99.90
45837;DHT22;31548;51.420;-0.040;2023-07-08T11:08:56;25.10;99.90
45837;DHT22;31548;51.420;-0.040;2023-07-08T11:11:41;25.00;99.90
45837;DHT22;31548;51.420;-0.040;2023-07-08T11:19:38;24.60;99.90
45837;DHT22;31548;51.420;-0.040;2023-07-08T11:22:11;24.50;99.90
45837;DHT22;31548;51.420;-0.040;2023-07-08T11:24:48;24.40;99.90
45837;DHT22;31548;51.420;-0.040;2023-07-08T11:27:23;24.30;99.90
45837;DHT22;31548;51.420;-0.040;2023-07-08T11:32:40;24.30;99.90
45837;DHT22;31548;51.420;-0.040;2023-07-08T11:35:20;24.30;99.90
45837;DHT22;31548;51.420;-0.040;2023-07-08T11:37:49;24.20;99.90
45837;DHT22;31548;51.420;-0.040;2023-07-08T11:40:23;24.10;99.90
45837;DHT22;31548;51.420;-0.040;2023-07-08T11:42:53;24.10;99.90
45837;DHT22;31548;51.420;-0.040;2023-07-08T11:45:38;24.20;99.90
45837;DHT22;31548;51.420;-0.040;2023-07-08T11:48:16;24.20;99.90
45837;DHT22;31548;51.420;-0.040;2023-07-08T11:50:46;24.20;99.90
45837;DHT22;31548;51.420;-0.040;2023-07-08T11:53:36;24.10;99.90
45837;DHT22;31548;51.420;-0.040;2023-07-08T11:56:25;24.10;99.90
45837;DHT22;31548;51.420;-0.040;2023-07-08T12:07:10;23.90;99.90
45837;DHT22;31548;51.420;-0.040;2023-07-08T12:09:45;23.90;99.90
45837;DHT22;31548;51.420;-0.040;2023-07-08T12:12:23;23.90;99.90
45837;DHT22;31548;51.420;-0.040;2023-07-08T12:14:58;23.90;99.90
45837;DHT22;31548;51.420;-0.040;2023-07-08T12:17:27;23.90;99.90
45837;DHT22;31548;51.420;-0.040;2023-07-08T12:19:56;23.90;99.90
45837;DHT22;31548;51.420;-0.040;2023-07-08T12:22:25;23.90;99.90
45837;DHT22;31548;51.420;-0.040;2023-07-08T12:24:52;23.80;99.90
45837;DHT22;31548;51.420;-0.040;2023-07-08T12:27:19;23.70;99.90
45837;DHT22;31548;51.420;-0.040;2023-07-08T12:29:51;23.80;99.90
45837;DHT22;31548;51.420;-0.040;2023-07-08T12:32:19;23.70;99.90
45837;DHT22;31548;51.420;-0.040;2023-07-08T12:34:49;23.80;99.90
45837;DHT22;31548;51.420;-0.040;2023-07-08T12:37:17;23.70;99.90
45837;DHT22;31548;51.420;-0.040;2023-07-08T12:39:54;23.70;99.90
45837;DHT22;31548;51.420;-0.040;2023-07-08T12:42:22;23.70;99.90
45837;DHT22;31548;51.420;-0.040;2023-07-08T12:44:49;23.60;99.90
45837;DHT22;31548;51.420;-0.040;2023-07-08T12:47:19;23.60;99.90
45837;DHT22;31548;51.420;-0.040;2023-07-08T12:49:48;23.50;99.90
45837;DHT22;31548;51.420;-0.040;2023-07-08T12:52:22;23.50;99.90
45837;DHT22;31548;51.420;-0.040;2023-07-08T12:54:50;23.40;99.90
45837;DHT22;31548;51.420;-0.040;2023-07-08T12:57:18;23.40;99.90
45837;DHT22;31548;51.420;-0.040;2023-07-08T12:59:46;23.50;99.90
45837;DHT22;31548;51.420;-0.040;2023-07-08T13:02:21;23.40;99.90
45837;DHT22;31548;51.420;-0.040;2023-07-08T13:04:53;23.40;99.90
45837;DHT22;31548;51.420;-0.040;2023-07-08T13:10:02;23.40;99.90
45837;DHT22;31548;51.420;-0.040;2023-07-08T13:12:32;23.40;99.90
45837;DHT22;31548;51.420;-0.040;2023-07-08T13:15:03;23.40;99.90
45837;DHT22;31548;51.420;-0.040;2023-07-08T13:17:32;23.30;99.90
45837;DHT22;31548;51.420;-0.040;2023-07-08T13:20:01;23.30;99.90
45837;DHT22;31548;51.420;-0.040;2023-07-08T13:22:29;23.40;99.90
45837;DHT22;31548;51.420;-0.040;2023-07-08T13:25:02;23.60;99.90
45837;DHT22;31548;51.420;-0.040;2023-07-08T13:27:30;23.70;99.90
45837;DHT22;31548;51.420;-0.040;2023-07-08T13:30:16;23.80;99.90
45837;DHT22;31548;51.420;-0.040;2023-07-08T13:32:48;24.30;99.90
45837;DHT22;31548;51.420;-0.040;2023-07-08T13:35:36;24.80;99.90
45837;DHT22;31548;51.420;-0.040;2023-07-08T13:38:05;25.00;99.90
45837;DHT22;31548;51.420;-0.040;2023-07-08T13:40:32;25.30;99.90
45837;DHT22;31548;51.420;-0.040;2023-07-08T13:43:00;25.20;99.90
45837;DHT22;31548;51.420;-0.040;2023-07-08T13:45:31;25.60;99.90
45837;DHT22;31548;51.420;-0.040;2023-07-08T13:51:11;25.90;99.90
45837;DHT22;31548;51.420;-0.040;2023-07-08T13:53:47;26.00;99.90
45837;DHT22;31548;51.420;-0.040;2023-07-08T13:56:22;25.80;99.90
45837;DHT22;31548;51.420;-0.040;2023-07-08T13:58:52;25.70;99.90
45837;DHT22;31548;51.420;-0.040;2023-07-08T14:01:22;25.90;99.90
45837;DHT22;31548;51.420;-0.040;2023-07-08T14:03:52;25.90;99.90
45837;DHT22;31548;51.420;-0.040;2023-07-08T14:06:22;26.00;99.90
45837;DHT22;31548;51.420;-0.040;2023-07-08T14:08:54;26.00;99.90
45837;DHT22;31548;51.420;-0.040;2023-07-08T14:11:23;26.00;99.90
45837;DHT22;31548;51.420;-0.040;2023-07-08T14:13:51;26.00;99.90
45837;DHT22;31548;51.420;-0.040;2023-07-08T14:16:28;26.00;99.90
45837;DHT22;31548;51.420;-0.040;2023-07-08T14:18:57;25.90;99.90
45837;DHT22;31548;51.420;-0.040;2023-07-08T14:21:25;26.00;99.90
45837;DHT22;31548;51.420;-0.040;2023-07-08T14:23:52;25.90;99.90
45837;DHT22;31548;51.420;-0.040;2023-07-08T14:26:21;25.80;99.90
45837;DHT22;31548;51.420;-0.040;2023-07-08T14:28:48;25.80;99.90
45837;DHT22;31548;51.420;-0.040;2023-07-08T14:31:20;25.70;99.90
45837;DHT22;31548;51.420;-0.040;2023-07-08T14:33:48;25.80;99.90
45837;DHT22;31548;51.420;-0.040;2023-07-08T14:36:15;25.90;99.90
45837;DHT22;31548;51.420;-0.040;2023-07-08T14:38:43;25.90;99.90
45837;DHT22;31548;51.420;-0.040;2023-07-08T14:41:11;26.00;99.90
45837;DHT22;31548;51.420;-0.040;2023-07-08T14:43:38;26.00;99.90
45837;DHT22;31548;51.420;-0.040;2023-07-08T14:46:09;25.90;99.90
45837;DHT22;31548;51.420;-0.040;2023-07-08T14:48:37;25.70;99.90
45837;DHT22;31548;51.420;-0.040;2023-07-08T14:51:05;25.80;99.90
45837;DHT22;31548;51.420;-0.040;2023-07-08T14:53:32;25.70;99.90
45837;DHT22;31548;51.420;-0.040;2023-07-08T14:56:02;25.70;99.90
45837;DHT22;31548;51.420;-0.040;2023-07-08T14:58:32;25.70;99.90
45837;DHT22;31548;51.420;-0.040;2023-07-08T15:01:07;25.70;99.90
45837;DHT22;31548;51.420;-0.040;2023-07-08T15:03:37;25.70;99.90
45837;DHT22;31548;51.420;-0.040;2023-07-08T15:06:11;25.80;99.90
45837;DHT22;31548;51.420;-0.040;2023-07-08T15:08:39;25.80;99.90
45837;DHT22;31548;51.420;-0.040;2023-07-08T15:11:10;26.00;99.90
45837;DHT22;31548;51.420;-0.040;2023-07-08T15:13:38;26.00;99.90
45837;DHT22;31548;51.420;-0.040;2023-07-08T15:16:07;26.00;99.90
45837;DHT22;31548;51.420;-0.040;2023-07-08T15:18:37;26.10;99.90
45837;DHT22;31548;51.420;-0.040;2023-07-08T15:21:06;26.00;99.90
45837;DHT22;31548;51.420;-0.040;2023-07-08T15:23:34;26.20;99.90
45837;DHT22;31548;51.420;-0.040;2023-07-08T15:26:01;26.50;99.90
45837;DHT22;31548;51.420;-0.040;2023-07-08T15:28:38;26.60;99.90
45837;DHT22;31548;51.420;-0.040;2023-07-08T15:31:10;26.70;99.90
45837;DHT22;31548;51.420;-0.040;2023-07-08T15:33:40;26.90;99.90
45837;DHT22;31548;51.420;-0.040;2023-07-08T15:36:10;27.20;99.90
45837;DHT22;31548;51.420;-0.040;2023-07-08T15:38:42;27.70;99.90
45837;DHT22;31548;51.420;-0.040;2023-07-08T15:41:20;28.20;99.90
45837;DHT22;31548;51.420;-0.040;2023-07-08T15:43:48;28.90;99.90
45837;DHT22;31548;51.420;-0.040;2023-07-08T15:46:16;29.50;99.90
45837;DHT22;31548;51.420;-0.040;2023-07-08T15:48:44;29.80;99.90
45837;DHT22;31548;51.420;-0.040;2023-07-08T15:51:14;29.50;99.90
45837;DHT22;31548;51.420;-0.040;2023-07-08T15:53:42;29.20;99.90
45837;DHT22;31548;51.420;-0.040;2023-07-08T15:56:15;29.00;99.90
45837;DHT22;31548;51.420;-0.040;2023-07-08T15:58:44;28.90;99.90
45837;DHT22;31548;51.420;-0.040;2023-07-08T16:01:21;28.80;99.90
45837;DHT22;31548;51.420;-0.040;2023-07-08T16:03:50;28.50;99.90
45837;DHT22;31548;51.420;-0.040;2023-07-08T16:06:18;28.40;99.90
45837;DHT22;31548;51.420;-0.040;2023-07-08T16:08:46;28.40;99.90
45837;DHT22;31548;51.420;-0.040;2023-07-08T16:11:26;28.30;99.90
45837;DHT22;31548;51.420;-0.040;2023-07-08T16:13:55;28.40;99.90
45837;DHT22;31548;51.420;-0.040;2023-07-08T16:16:23;28.30;99.90
45837;DHT22;31548;51.420;-0.040;2023-07-08T16:18:52;28.30;99.90
45837;DHT22;31548;51.420;-0.040;2023-07-08T16:21:20;28.10;99.90
45837;DHT22;31548;51.420;-0.040;2023-07-08T16:23:47;28.00;99.90
45837;DHT22;31548;51.420;-0.040;2023-07-08T16:26:15;27.80;99.90
45837;DHT22;31548;51.420;-0.040;2023-07-08T16:28:45;27.90;99.90
45837;DHT22;31548;51.420;-0.040;2023-07-08T16:31:19;28.00;99.90
45837;DHT22;31548;51.420;-0.040;2023-07-08T16:33:48;28.10;99.90
45837;DHT22;31548;51.420;-0.040;2023-07-08T16:36:21;28.10;99.90
45837;DHT22;31548;51.420;-0.040;2023-07-08T16:38:49;28.00;99.90
45837;DHT22;31548;51.420;-0.040;2023-07-08T16:41:20;28.00;99.90
45837;DHT22;31548;51.420;-0.040;2023-07-08T16:43:50;27.90;99.90